• Join FlightAware (Why Join?)
  • Login
  • US Flag 
03:32AM EDT


 

Airport Tracker/Info


-or-


 

Live Flight TrackerFlight Track Log ✈ N102WY ✈ 19-May-2013 ✈ KRKS - KGEG

Flight Track Log - Related Links

Times and Time Zones

All times are in EDT time to prevent confusion due to time zone crossing. See the N102WY flight status page for this flight to view local times or setup timezone preferences in your user account.

Time Position Orientation Groundspeed Altitude Reporting Facility
EDT Latitude Longitude Course Direction KTS MPH feet Rate Location/Type
05:09PM 41.6283 -109.1300 314° West 215 247 9,900  Level Salt Lake Center
05:10PM 41.6767 -109.1975 314° West 249 287 11,800 2,220 Climbing Salt Lake Center
05:11PM 41.7308 -109.2686 316° Northwest 277 319 14,500 2,820 Climbing Salt Lake Center
05:12PM 41.7994 -109.3494 319° Northwest 290 334 17,600 2,580 Climbing Salt Lake Center
05:13PM 41.8600 -109.4236 318° Northwest 301 346 19,900 2,460 Climbing Salt Lake Center
05:14PM 41.9317 -109.5119 317° Northwest 312 359 22,700 2,400 Climbing Salt Lake Center
05:15PM 41.9933 -109.5878 318° Northwest 312 359 24,900 2,100 Climbing Salt Lake Center
05:16PM 42.0689 -109.6803 318° Northwest 326 375 27,100 2,040 Climbing Salt Lake Center
05:17PM 42.1358 -109.7639 317° Northwest 341 392 29,100 2,040 Climbing Salt Lake Center
05:18PM 42.2039 -109.8481 318° Northwest 347 399 31,400 2,040 Climbing Salt Lake Center
05:19PM 42.2867 -109.9508 317° Northwest 361 415 33,400 1,740 Climbing Salt Lake Center
05:20PM 42.3589 -110.0408 317° Northwest 367 422 35,000 1,560 Climbing Salt Lake Center
05:21PM 42.4428 -110.1461 317° Northwest 368 423 36,700 1,500 Climbing Salt Lake Center
05:22PM 42.5133 -110.2331 318° Northwest 362 417 38,200 1,260 Climbing Salt Lake Center
05:23PM 42.5919 -110.3314 317° Northwest 345 397 39,400 840 Climbing Salt Lake Center
05:24PM 42.6597 -110.4178 317° Northwest 348 400 40,000 240 Climbing Salt Lake Center
05:26PM 42.7289 -110.5053 317° Northwest 353 406 40,000  Level Salt Lake Center
05:27PM 42.8081 -110.6047 317° Northwest 359 413 40,000  Level Salt Lake Center
05:28PM 42.8897 -110.7097 317° Northwest 361 415 40,000  Level Salt Lake Center
05:29PM 42.9594 -110.7983 317° Northwest 360 414 40,000  Level Salt Lake Center
05:30PM 43.0300 -110.8881 317° Northwest 361 415 40,000  Level Salt Lake Center
05:31PM 43.1108 -110.9928 317° Northwest 360 414 40,000  Level Salt Lake Center
05:32PM 43.1808 -111.0814 317° Northwest 358 412 40,000  Level Salt Lake Center
05:33PM 43.2625 -111.1881 316° Northwest 361 415 40,000  Level Salt Lake Center
05:34PM 43.3322 -111.2769 317° Northwest 358 412 40,000  Level Salt Lake Center
05:35PM 43.4119 -111.3831 316° Northwest 357 411 40,000  Level Salt Lake Center
05:36PM 43.4819 -111.4739 317° Northwest 359 413 40,000  Level Salt Lake Center
05:37PM 43.5514 -111.5647 317° Northwest 359 413 40,000  Level Salt Lake Center
05:38PM 43.6325 -111.6722 316° Northwest 361 415 40,000  Level Salt Lake Center
05:39PM 43.7008 -111.7642 316° Northwest 359 413 40,000  Level Salt Lake Center
05:40PM 43.7825 -111.8706 317° Northwest 359 413 40,000  Level Salt Lake Center
05:41PM 43.8519 -111.9631 316° Northwest 361 415 40,000  Level Salt Lake Center
05:42PM 43.9214 -112.0564 316° Northwest 362 417 40,000  Level Salt Lake Center
05:43PM 44.0019 -112.1644 316° Northwest 361 415 40,000  Level Salt Lake Center
05:44PM 44.0722 -112.2575 316° Northwest 363 418 40,000  Level Salt Lake Center
05:45PM 44.1536 -112.3686 316° Northwest 366 421 40,000  Level Salt Lake Center
05:46PM 44.2236 -112.4656 315° West 368 423 40,000  Level Salt Lake Center
05:47PM 44.3075 -112.5764 317° Northwest 371 427 40,000  Level Salt Lake Center
05:48PM 44.3758 -112.6714 315° West 364 419 40,000  Level Salt Lake Center
05:49PM 44.4444 -112.7672 315° West 364 419 40,000  Level Salt Lake Center
05:50PM 44.5256 -112.8789 316° Northwest 364 419 40,000  Level Salt Lake Center
05:51PM 44.5944 -112.9744 315° West 364 419 40,000  Level Salt Lake Center
05:52PM 44.6756 -113.0861 316° Northwest 366 421 40,000  Level Salt Lake Center
05:53PM 44.7431 -113.1825 315° West 361 415 40,000  Level Salt Lake Center
05:54PM 44.8122 -113.2783 316° Northwest 363 418 40,000  Level Salt Lake Center
05:55PM 44.8922 -113.3897 315° West 363 418 40,000  Level Salt Lake Center
05:56PM 44.9600 -113.4858 315° West 361 415 40,000  Level Salt Lake Center
05:57PM 45.0389 -113.5978 315° West 360 414 40,000  Level Salt Lake Center
05:58PM 45.1061 -113.6936 315° West 358 412 40,000  Level Salt Lake Center
05:59PM 45.1839 -113.8053 315° West 357 411 40,000  Level Salt Lake Center
06:00PM 45.2494 -113.9003 314° West 353 406 40,000  Level Salt Lake Center
06:01PM 45.3250 -114.0058 316° Northwest 358 412 40,000  Level Salt Lake Center
06:02PM 45.3917 -114.1019 315° West 358 412 40,000  Level Salt Lake Center
06:04PM 45.4681 -114.2133 314° West 354 407 40,000  Level Salt Lake Center
06:05PM 45.5350 -114.3089 315° West 355 409 40,000  Level Salt Lake Center
06:06PM 45.6008 -114.4061 314° West 356 410 40,000  Level Salt Lake Center
06:07PM 45.6772 -114.5183 314° West 355 409 40,000  Level Salt Lake Center
06:08PM 45.7431 -114.6156 314° West 354 407 40,000  Level Salt Lake Center
06:09PM 45.8194 -114.7286 314° West 355 409 40,000  Level Salt Lake Center
06:10PM 45.8861 -114.8292 314° West 361 415 40,000  Level Salt Lake Center
06:11PM 45.9631 -114.9433 314° West 358 412 40,000  Level Salt Lake Center
06:12PM 46.0278 -115.0406 314° West 354 407 40,000  Level Salt Lake Center
06:13PM 46.0939 -115.1397 314° West 358 412 40,000  Level Salt Lake Center
06:14PM 46.1608 -115.2403 314° West 358 412 40,000  Level Salt Lake Center
06:15PM 46.2289 -115.3436 314° West 358 412 40,000  Level Salt Lake Center
06:16PM 46.2836 -115.4253 314° West 355 409 40,000  Level Seattle Center
06:17PM 46.3517 -115.5294 313° West 358 412 40,000  Level Seattle Center
06:18PM 46.4200 -115.6333 314° West 357 411 40,000  Level Seattle Center
06:19PM 46.4881 -115.7386 313° West 357 411 40,000  Level Seattle Center
06:20PM 46.5561 -115.8442 313° West 360 414 40,000 -300 Level Seattle Center
06:21PM 46.6250 -115.9489 314° West 359 413 39,500 -780 Descending Seattle Center
06:22PM 46.6975 -116.0608 313° West 376 433 38,500 -1,140 Descending Seattle Center
06:23PM 46.7808 -116.1933 313° West 371 427 37,300 -1,740 Descending Seattle Center
06:24PM 46.8519 -116.3050 313° West 374 430 35,000 -2,520 Descending Seattle Center
06:25PM 46.9228 -116.4156 313° West 374 430 32,200 -2,820 Descending Seattle Center
06:26PM 46.9911 -116.5233 313° West 365 420 29,300 -2,880 Descending Seattle Center
06:27PM 47.0581 -116.6306 313° West 359 413 26,400 -2,880 Descending Seattle Center
06:28PM 47.1231 -116.7328 313° West 345 397 23,500 -2,880 Descending Seattle Center
06:29PM 47.1836 -116.8294 313° West 325 374 20,700 -2,700 Descending Seattle Center
06:30PM 47.2419 -116.9228 313° West 314 361 18,100 -2,520 Descending Seattle Center
06:31PM 47.3108 -117.0106 319° Northwest 286 329 15,600 -2,400 Descending Seattle Center
06:32PM 47.3719 -117.0775 323° Northwest 276 318 13,300 -2,220 Descending Seattle Center
06:33PM 47.4286 -117.1403 323° Northwest 257 296 11,100 -2,220 Descending Seattle Center
06:34PM 47.4822 -117.2011 323° Northwest 245 282 8,900 -1,920 Descending Seattle Center
06:35PM 47.5350 -117.2619 322° Northwest 241 277 7,300 -1,440 Descending Seattle Center
06:36PM 47.5831 -117.3161 323° Northwest 237 273 6,000 -840 Descending Seattle Center
06:37PM 47.6353 -117.3767 322° Northwest 234 269 5,600 -660 Descending Seattle Center
06:38PM 47.6600 -117.4394 300° West 177 204 4,700 -1,320 Descending Seattle Center
06:39PM 47.6494 -117.4917 253° West 135 155 3,000 -1,200 Descending Seattle Center
06:40PM 47.6269 -117.5247 225° Southwest 116 133 2,300 -360 Descending Seattle Center
06:41PM 47.6194 -117.5358 225° Southwest 77 89 2,300  Level Seattle Center